createdAt,value
2018-12-01T00:01:00.477Z,63.31
2018-12-01T00:03:28.337Z,62.74
2018-12-01T00:05:56.165Z,62.73
2018-12-01T00:08:24.020Z,63.24
2018-12-01T00:10:51.841Z,63.63
2018-12-01T00:13:19.641Z,63.95
2018-12-01T00:15:47.566Z,62.63
2018-12-01T00:18:15.401Z,62.59
2018-12-01T00:20:43.247Z,63.65
2018-12-01T00:23:11.057Z,64.33
2018-12-01T00:25:38.841Z,63.68
2018-12-01T00:28:06.680Z,63.64
2018-12-01T00:30:34.505Z,63.97
2018-12-01T00:33:02.522Z,64.30
2018-12-01T00:35:30.326Z,64.72
2018-12-01T00:37:58.159Z,65.17
2018-12-01T00:40:25.961Z,64.65
2018-12-01T00:42:53.753Z,64.96
2018-12-01T00:45:22.369Z,64.30
2018-12-01T00:47:51.338Z,64.07
2018-12-01T00:50:21.145Z,64.08
2018-12-01T00:52:49.724Z,64.03
2018-12-01T00:55:18.280Z,63.24
2018-12-01T00:57:45.989Z,63.06
2018-12-01T01:00:18.674Z,62.97
2018-12-01T01:02:50.447Z,62.55
2018-12-01T01:05:18.246Z,63.00
2018-12-01T01:07:46.018Z,61.85
2018-12-01T01:10:13.745Z,61.53
2018-12-01T01:12:41.489Z,61.35
2018-12-01T01:15:09.248Z,61.09
2018-12-01T01:17:37.042Z,60.81
2018-12-01T01:20:09.106Z,61.87
2018-12-01T01:22:36.861Z,60.20
2018-12-01T01:25:05.349Z,58.93
2018-12-01T01:27:33.095Z,60.18
2018-12-01T01:30:00.860Z,59.44
2018-12-01T01:32:28.589Z,59.71
2018-12-01T01:34:56.336Z,59.49
2018-12-01T01:37:24.018Z,59.56
2018-12-01T01:39:51.721Z,59.46
2018-12-01T01:42:19.461Z,58.95
2018-12-01T01:44:47.154Z,59.23
2018-12-01T01:47:14.861Z,60.18
2018-12-01T01:49:42.605Z,60.54
2018-12-01T01:52:10.318Z,62.08
2018-12-01T01:54:38.024Z,63.71
2018-12-01T01:57:05.798Z,63.03
2018-12-01T01:59:33.545Z,65.21
2018-12-01T02:02:01.277Z,64.38
2018-12-01T02:04:28.986Z,63.71
2018-12-01T02:06:56.787Z,65.14
2018-12-01T02:09:24.465Z,66.39
2018-12-01T02:11:52.203Z,67.79
2018-12-01T02:14:19.904Z,67.89
2018-12-01T02:16:47.622Z,67.92
2018-12-01T02:19:15.343Z,67.99
2018-12-01T02:21:43.026Z,69.60
2018-12-01T02:24:10.697Z,69.13
2018-12-01T02:26:38.517Z,68.91
2018-12-01T02:29:06.198Z,68.52
2018-12-01T02:31:33.875Z,68.61
2018-12-01T02:34:01.600Z,68.66
2018-12-01T02:36:29.295Z,69.96
2018-12-01T02:38:57.007Z,69.68
2018-12-01T02:41:24.721Z,70.17
2018-12-01T02:44:03.573Z,70.48
2018-12-01T02:47:35.058Z,70.84
2018-12-01T02:50:03.370Z,70.59
2018-12-01T02:52:31.077Z,69.85
2018-12-01T02:54:58.789Z,69.25
2018-12-01T02:57:26.506Z,68.39
2018-12-01T02:59:54.228Z,69.34
2018-12-01T03:02:24.080Z,68.40
2018-12-01T03:04:52.416Z,68.73
2018-12-01T03:07:20.237Z,68.13
2018-12-01T03:09:47.985Z,67.67
2018-12-01T03:12:15.717Z,68.84
2018-12-01T03:14:43.421Z,68.48
2018-12-01T03:17:11.165Z,68.20
2018-12-01T03:19:38.886Z,66.51
2018-12-01T03:22:06.577Z,66.96
2018-12-01T03:24:34.286Z,67.90
2018-12-01T03:27:01.981Z,67.60
2018-12-01T03:29:29.732Z,67.11
2018-12-01T03:31:57.474Z,67.99
2018-12-01T03:34:25.169Z,66.94
2018-12-01T03:36:52.878Z,67.34
2018-12-01T03:39:20.597Z,66.41
2018-12-01T03:41:48.389Z,64.96
2018-12-01T03:44:16.085Z,64.37
2018-12-01T03:46:43.861Z,65.40
2018-12-01T03:49:11.589Z,67.41
2018-12-01T03:51:39.278Z,68.52
2018-12-01T03:54:07.196Z,67.54
2018-12-01T03:56:34.913Z,68.24
2018-12-01T03:59:02.606Z,68.21
2018-12-01T04:01:30.346Z,66.66
2018-12-01T04:03:58.142Z,67.89
2018-12-01T04:06:25.821Z,67.98
2018-12-01T04:08:53.581Z,67.08
2018-12-01T04:11:21.258Z,67.46
2018-12-01T04:13:48.946Z,66.57
2018-12-01T04:16:16.689Z,65.94
2018-12-01T04:18:44.389Z,68.49
2018-12-01T04:21:12.077Z,67.02
2018-12-01T04:23:39.833Z,66.33
2018-12-01T04:26:07.525Z,66.30
2018-12-01T04:28:35.214Z,67.54
2018-12-01T04:31:02.929Z,66.87
2018-12-01T04:33:30.667Z,66.06
2018-12-01T04:35:58.407Z,65.90
2018-12-01T04:38:26.133Z,65.22
2018-12-01T04:40:53.840Z,64.60
2018-12-01T04:43:21.661Z,67.67
2018-12-01T04:45:49.393Z,67.08
2018-12-01T04:48:17.086Z,65.72
2018-12-01T04:50:44.812Z,65.12
2018-12-01T04:53:12.622Z,64.40
2018-12-01T04:55:40.347Z,64.53
2018-12-01T04:58:08.071Z,63.98
2018-12-01T05:00:35.811Z,63.11
2018-12-01T05:03:03.505Z,62.53
2018-12-01T05:05:31.217Z,62.89
2018-12-01T05:07:58.969Z,63.16
2018-12-01T05:10:26.729Z,64.41
2018-12-01T05:12:54.421Z,64.55
2018-12-01T05:15:22.169Z,65.41
2018-12-01T05:17:49.873Z,64.58
2018-12-01T05:20:20.607Z,65.03
2018-12-01T05:22:48.858Z,64.04
2018-12-01T05:25:16.639Z,64.43
2018-12-01T05:27:44.397Z,64.40
2018-12-01T05:30:12.151Z,64.60
2018-12-01T05:32:39.894Z,66.18
2018-12-01T05:35:13.873Z,64.50
2018-12-01T05:37:41.586Z,65.07
2018-12-01T05:40:10.433Z,64.08
2018-12-01T05:42:38.263Z,64.09
2018-12-01T05:45:09.546Z,63.87
2018-12-01T05:47:37.260Z,64.44
2018-12-01T05:50:06.395Z,63.63
2018-12-01T05:52:34.086Z,62.89
2018-12-01T05:55:01.884Z,63.01
2018-12-01T05:57:29.717Z,66.72
2018-12-01T05:59:57.389Z,67.03
2018-12-01T06:02:25.099Z,66.02
2018-12-01T06:04:52.842Z,63.88
2018-12-01T06:07:20.582Z,62.59
2018-12-01T06:09:48.288Z,63.22
2018-12-01T06:12:16.134Z,63.76
2018-12-01T06:14:43.901Z,64.34
2018-12-01T06:17:11.617Z,67.28
2018-12-01T06:19:39.400Z,67.47
2018-12-01T06:22:07.150Z,66.19
2018-12-01T06:24:34.841Z,70.60
2018-12-01T06:27:02.633Z,69.13
2018-12-01T06:29:30.336Z,58.89
2018-12-01T06:31:58.059Z,60.05
2018-12-01T06:34:25.789Z,58.16
2018-12-01T06:36:53.468Z,53.91
2018-12-01T06:39:21.184Z,51.10
2018-12-01T06:41:48.908Z,49.53
2018-12-01T06:44:16.634Z,51.46
2018-12-01T06:46:44.349Z,50.72
2018-12-01T06:49:12.092Z,50.11
2018-12-01T06:51:39.809Z,49.76
2018-12-01T06:54:07.527Z,48.68
2018-12-01T06:56:35.257Z,48.31
2018-12-01T06:59:02.941Z,53.25
2018-12-01T07:01:30.620Z,51.20
2018-12-01T07:03:58.334Z,52.36
2018-12-01T07:06:26.038Z,54.78
2018-12-01T07:08:53.822Z,53.86
2018-12-01T07:11:21.537Z,60.55
2018-12-01T07:13:49.242Z,49.85
2018-12-01T07:16:16.957Z,48.00
2018-12-01T07:18:55.777Z,46.03
2018-12-01T07:21:23.477Z,47.33
2018-12-01T07:23:51.170Z,46.56
2018-12-01T07:26:18.893Z,47.50
2018-12-01T07:28:46.597Z,48.37
2018-12-01T07:31:14.316Z,47.66
2018-12-01T07:33:42.041Z,48.99
2018-12-01T07:36:09.783Z,50.13
2018-12-01T07:38:37.510Z,51.95
2018-12-01T07:41:05.669Z,52.82
2018-12-01T07:43:33.370Z,50.53
2018-12-01T07:46:01.080Z,49.67
2018-12-01T07:48:28.808Z,46.43
2018-12-01T07:50:56.500Z,45.53
2018-12-01T07:53:24.221Z,45.02
2018-12-01T07:55:52.008Z,45.71
2018-12-01T07:58:19.744Z,47.01
2018-12-01T08:00:47.429Z,46.79
2018-12-01T08:03:15.158Z,46.43
2018-12-01T08:05:42.874Z,46.36
2018-12-01T08:08:10.575Z,45.07
2018-12-01T08:10:38.340Z,44.08
2018-12-01T08:13:06.041Z,43.43
2018-12-01T08:15:33.757Z,43.84
2018-12-01T08:18:01.632Z,45.07
2018-12-01T08:20:29.317Z,45.74
2018-12-01T08:22:57.006Z,45.01
2018-12-01T08:25:24.734Z,45.11
2018-12-01T08:27:54.004Z,45.12
2018-12-01T08:30:25.985Z,44.64
2018-12-01T08:32:53.717Z,44.83
2018-12-01T08:35:21.715Z,46.58
2018-12-01T08:37:49.464Z,44.07
2018-12-01T08:40:18.441Z,43.24
2018-12-01T08:42:46.158Z,42.17
2018-12-01T08:45:13.977Z,43.06
2018-12-01T08:47:42.016Z,47.18
2018-12-01T08:50:15.673Z,41.25
2018-12-01T08:52:43.421Z,42.82
2018-12-01T08:55:13.536Z,42.04
2018-12-01T08:57:41.313Z,43.63
2018-12-01T09:00:17.454Z,44.00
2018-12-01T09:02:46.269Z,45.02
2018-12-01T09:05:14.001Z,45.73
2018-12-01T09:07:41.681Z,47.83
2018-12-01T09:10:10.105Z,46.48
2018-12-01T09:12:37.807Z,45.82
2018-12-01T09:15:08.866Z,46.12
2018-12-01T09:17:37.294Z,46.71
2018-12-01T09:20:07.615Z,47.08
2018-12-01T09:22:35.326Z,45.86
2018-12-01T09:25:03.129Z,45.57
2018-12-01T09:27:30.814Z,47.51
2018-12-01T09:29:58.624Z,48.15
2018-12-01T09:32:26.365Z,46.55
2018-12-01T09:34:54.085Z,46.72
2018-12-01T09:37:21.813Z,45.10
2018-12-01T09:39:49.543Z,45.50
2018-12-01T09:42:17.339Z,45.30
2018-12-01T09:44:45.073Z,46.14
2018-12-01T09:47:12.790Z,45.19
2018-12-01T09:49:40.506Z,45.92
2018-12-01T09:52:08.260Z,46.32
2018-12-01T09:54:36.087Z,45.35
2018-12-01T09:57:03.821Z,45.03
2018-12-01T09:59:31.602Z,46.44
2018-12-01T10:01:59.355Z,43.25
2018-12-01T10:04:27.037Z,43.33
2018-12-01T10:06:54.746Z,43.79
2018-12-01T10:09:22.518Z,42.97
2018-12-01T10:11:50.598Z,43.26
2018-12-01T10:14:18.085Z,49.13
2018-12-01T10:16:45.829Z,42.50
2018-12-01T10:19:13.518Z,45.42
2018-12-01T10:21:41.221Z,46.15
2018-12-01T10:24:08.984Z,45.90
2018-12-01T10:26:36.669Z,46.59
2018-12-01T10:29:04.546Z,46.66
2018-12-01T10:31:32.334Z,45.64
2018-12-01T10:34:00.022Z,45.17
2018-12-01T10:36:28.992Z,45.18
2018-12-01T10:38:55.625Z,46.80
2018-12-01T10:41:23.331Z,46.61
2018-12-01T10:43:51.013Z,46.66
2018-12-01T10:46:18.839Z,46.67
2018-12-01T10:48:46.549Z,46.82
2018-12-01T10:51:14.250Z,45.04
2018-12-01T10:53:41.969Z,46.65
2018-12-01T10:56:09.729Z,46.33
2018-12-01T10:58:37.501Z,48.52
2018-12-01T11:03:18.611Z,47.62
2018-12-01T11:05:46.400Z,48.56
2018-12-01T11:08:15.024Z,49.37
2018-12-01T11:10:42.975Z,50.63
2018-12-01T11:13:10.735Z,49.14
2018-12-01T11:15:38.481Z,46.07
2018-12-01T11:18:06.261Z,48.36
2018-12-01T11:20:34.021Z,51.05
2018-12-01T11:23:01.782Z,48.29
2018-12-01T11:25:29.600Z,47.64
2018-12-01T11:27:57.410Z,48.54
2018-12-01T11:30:25.120Z,48.98
2018-12-01T11:32:52.977Z,49.72
2018-12-01T11:35:20.692Z,47.58
2018-12-01T11:37:48.433Z,49.00
2018-12-01T11:40:17.208Z,49.76
2018-12-01T11:42:45.059Z,48.40
2018-12-01T11:45:13.908Z,49.34
2018-12-01T11:47:41.669Z,50.70
2018-12-01T11:50:18.701Z,48.46
2018-12-01T11:52:47.337Z,44.86
2018-12-01T11:55:16.390Z,46.91
2018-12-01T11:57:44.125Z,48.43
2018-12-01T12:00:19.041Z,47.06
2018-12-01T12:02:46.810Z,49.01
2018-12-01T12:05:15.272Z,50.25
2018-12-01T12:07:54.134Z,51.32
2018-12-01T12:10:21.882Z,51.45
2018-12-01T12:12:50.162Z,50.93
2018-12-01T12:15:18.573Z,53.93
2018-12-01T12:17:48.753Z,53.97
2018-12-01T12:20:16.461Z,55.03
2018-12-01T12:22:44.277Z,56.41
2018-12-01T12:25:12.017Z,56.23
2018-12-01T12:27:39.761Z,56.22
2018-12-01T12:30:12.541Z,57.21
2018-12-01T12:32:40.365Z,56.91
2018-12-01T12:35:09.297Z,57.59
2018-12-01T12:37:36.989Z,56.90
2018-12-01T12:40:09.189Z,57.28
2018-12-01T12:42:36.905Z,57.20
2018-12-01T12:45:06.816Z,58.03
2018-12-01T12:47:34.541Z,56.91
2018-12-01T12:50:02.274Z,54.50
2018-12-01T12:52:29.940Z,56.24
2018-12-01T12:54:57.669Z,57.14
2018-12-01T12:57:25.388Z,56.25
2018-12-01T12:59:53.072Z,56.63
2018-12-01T13:02:20.785Z,55.65
2018-12-01T13:04:48.510Z,56.87
2018-12-01T13:07:16.221Z,57.13
2018-12-01T13:09:43.945Z,58.52
2018-12-01T13:12:11.682Z,59.50
2018-12-01T13:14:39.381Z,60.23
2018-12-01T13:17:07.083Z,60.93
2018-12-01T13:19:34.819Z,61.57
2018-12-01T13:22:02.530Z,61.28
2018-12-01T13:24:30.254Z,60.74
2018-12-01T13:26:58.020Z,60.92
2018-12-01T13:29:25.809Z,59.94
2018-12-01T13:31:54.567Z,60.57
2018-12-01T13:34:21.422Z,60.38
2018-12-01T13:36:49.163Z,62.50
2018-12-01T13:39:16.893Z,62.33
2018-12-01T13:41:44.641Z,61.75
2018-12-01T13:44:12.357Z,61.62
2018-12-01T13:46:40.094Z,62.42
2018-12-01T13:49:07.863Z,62.77
2018-12-01T13:51:35.602Z,63.01
2018-12-01T13:54:03.346Z,63.01
2018-12-01T13:56:31.065Z,62.58
2018-12-01T13:58:58.763Z,62.89
2018-12-01T14:01:26.480Z,63.95
2018-12-01T14:03:54.208Z,63.25
2018-12-01T14:06:21.958Z,62.84
2018-12-01T14:08:49.786Z,62.08
2018-12-01T14:11:17.557Z,61.65
2018-12-01T14:13:45.277Z,62.15
2018-12-01T14:16:13.001Z,61.26
2018-12-01T14:18:40.804Z,63.87
2018-12-01T14:21:08.501Z,62.50
2018-12-01T14:23:36.209Z,63.34
2018-12-01T14:26:04.279Z,63.10
2018-12-01T14:28:32.001Z,64.76
2018-12-01T14:30:59.735Z,64.38
2018-12-01T14:33:27.501Z,63.72
2018-12-01T14:35:55.249Z,63.30
2018-12-01T14:38:22.986Z,64.41
2018-12-01T14:40:51.063Z,64.17
2018-12-01T14:43:21.440Z,65.18
2018-12-01T14:45:49.674Z,66.12
2018-12-01T14:48:17.410Z,66.60
2018-12-01T14:50:48.567Z,67.59
2018-12-01T14:53:15.385Z,67.52
2018-12-01T14:55:43.121Z,67.16
2018-12-01T14:58:10.842Z,66.01
2018-12-01T15:00:38.549Z,65.30
2018-12-01T15:03:07.217Z,64.50
2018-12-01T15:05:34.921Z,64.92
2018-12-01T15:08:02.722Z,65.34
2018-12-01T15:10:30.501Z,66.16
2018-12-01T15:12:58.262Z,65.12
2018-12-01T15:15:26.863Z,65.43
2018-12-01T15:17:54.693Z,66.01
2018-12-01T15:20:23.503Z,67.05
2018-12-01T15:22:52.281Z,67.33
2018-12-01T15:25:22.436Z,65.87
2018-12-01T15:27:50.214Z,66.49
2018-12-01T15:30:19.874Z,68.55
2018-12-01T15:32:52.067Z,66.62
2018-12-01T15:35:19.833Z,65.50
2018-12-01T15:37:47.623Z,67.88
2018-12-01T15:40:16.637Z,69.05
2018-12-01T15:42:44.384Z,68.37
2018-12-01T15:45:13.599Z,67.31
2018-12-01T15:47:41.477Z,68.33
2018-12-01T15:50:10.813Z,68.79
2018-12-01T15:52:38.664Z,68.35
2018-12-01T15:55:10.258Z,67.73
2018-12-01T15:57:38.064Z,66.44
2018-12-01T16:00:14.276Z,67.54
2018-12-01T16:02:42.012Z,67.30
2018-12-01T16:05:10.940Z,66.69
2018-12-01T16:07:38.810Z,67.21
2018-12-01T16:10:09.921Z,66.95
2018-12-01T16:12:37.656Z,66.56
2018-12-01T16:15:10.093Z,66.39
2018-12-01T16:17:38.010Z,67.21
2018-12-01T16:20:08.205Z,67.23
2018-12-01T16:22:36.093Z,67.90
2018-12-01T16:25:04.385Z,68.56
2018-12-01T16:27:32.157Z,67.89
2018-12-01T16:30:00.020Z,67.35
2018-12-01T16:32:27.699Z,67.04
2018-12-01T16:34:55.417Z,67.64
2018-12-01T16:37:23.168Z,67.41
2018-12-01T16:39:51.002Z,67.58
2018-12-01T16:42:18.773Z,68.95
2018-12-01T16:44:46.522Z,70.17
2018-12-01T16:47:14.287Z,69.82
2018-12-01T16:49:42.060Z,68.45
2018-12-01T16:52:09.814Z,67.72
2018-12-01T16:54:37.565Z,68.33
2018-12-01T16:57:05.655Z,66.50
2018-12-01T16:59:33.500Z,66.02
2018-12-01T17:02:01.232Z,67.72
2018-12-01T17:04:28.950Z,67.39
2018-12-01T17:06:56.730Z,67.57
2018-12-01T17:09:24.405Z,67.69
2018-12-01T17:11:52.137Z,66.65
2018-12-01T17:14:19.965Z,66.37
2018-12-01T17:16:47.704Z,67.14
2018-12-01T17:19:15.495Z,66.75
2018-12-01T17:21:43.221Z,67.13
2018-12-01T17:24:10.946Z,66.87
2018-12-01T17:26:38.653Z,66.82
2018-12-01T17:29:06.742Z,66.55
2018-12-01T17:31:34.470Z,68.45
2018-12-01T17:34:02.222Z,68.27
2018-12-01T17:36:30.045Z,66.82
2018-12-01T17:38:57.806Z,67.14
2018-12-01T17:41:28.026Z,66.75
2018-12-01T17:43:59.006Z,65.35
2018-12-01T17:46:26.757Z,64.79
2018-12-01T17:48:54.578Z,64.47
2018-12-01T17:51:22.429Z,65.92
2018-12-01T17:53:53.220Z,67.06
2018-12-01T17:56:20.953Z,66.01
2018-12-01T17:58:48.851Z,65.48
2018-12-01T18:01:16.573Z,66.60
2018-12-01T18:03:44.310Z,66.91
2018-12-01T18:06:12.954Z,65.08
2018-12-01T18:08:40.779Z,66.01
2018-12-01T18:11:09.561Z,66.50
2018-12-01T18:13:37.307Z,66.15
2018-12-01T18:16:05.822Z,66.86
2018-12-01T18:18:33.553Z,67.06
2018-12-01T18:21:01.400Z,67.34
2018-12-01T18:23:29.167Z,66.25
2018-12-01T18:25:56.926Z,65.54
2018-12-01T18:28:27.930Z,67.50
2018-12-01T18:30:56.248Z,69.42
2018-12-01T18:33:27.025Z,67.82
2018-12-01T18:35:54.760Z,67.34
2018-12-01T18:38:22.499Z,67.61
2018-12-01T18:40:50.217Z,66.05
2018-12-01T18:43:18.033Z,66.71
2018-12-01T18:45:47.549Z,65.64
2018-12-01T18:48:15.251Z,67.09
2018-12-01T18:50:42.997Z,66.36
2018-12-01T18:53:11.033Z,66.87
2018-12-01T18:55:40.964Z,68.78
2018-12-01T18:58:09.565Z,67.18
2018-12-01T19:00:47.032Z,65.76
2018-12-01T19:03:14.892Z,67.70
2018-12-01T19:05:42.618Z,66.78
2018-12-01T19:08:10.337Z,68.15
2018-12-01T19:10:38.106Z,66.87
2018-12-01T19:13:06.561Z,65.92
2018-12-01T19:15:34.282Z,65.66
2018-12-01T19:18:02.029Z,65.31
2018-12-01T19:20:29.794Z,65.20
2018-12-01T19:22:57.488Z,65.90
2018-12-01T19:25:25.256Z,67.45
2018-12-01T19:27:53.970Z,69.30
2018-12-01T19:30:22.044Z,71.16
2018-12-01T19:32:52.208Z,71.49
2018-12-01T19:35:19.917Z,69.84
2018-12-01T19:37:48.861Z,68.80
2018-12-01T19:40:28.454Z,67.68
2018-12-01T19:42:50.821Z,69.60
2018-12-01T19:45:18.545Z,68.93
2018-12-01T19:47:46.302Z,67.86
2018-12-01T19:50:18.337Z,68.44
2018-12-01T19:52:46.048Z,68.03
2018-12-01T19:55:14.106Z,67.86
2018-12-01T19:57:42.381Z,68.55
2018-12-01T20:00:27.065Z,68.67
2018-12-01T20:02:55.640Z,68.16
2018-12-01T20:05:23.349Z,67.69
2018-12-01T20:07:51.761Z,66.72
2018-12-01T20:10:32.778Z,66.26
2018-12-01T20:13:03.573Z,65.39
2018-12-01T20:15:47.548Z,65.06
2018-12-01T20:18:20.609Z,66.55
2018-12-01T20:20:48.324Z,66.68
2018-12-01T20:23:16.009Z,66.49
2018-12-01T20:25:44.989Z,66.19
2018-12-01T20:28:12.714Z,65.44
2018-12-01T20:30:40.426Z,66.85
2018-12-01T20:33:08.153Z,65.29
2018-12-01T20:35:48.584Z,66.29
2018-12-01T20:38:19.869Z,64.77
2018-12-01T20:40:47.569Z,64.01
2018-12-01T20:43:15.246Z,64.55
2018-12-01T20:45:43.074Z,64.01
2018-12-01T20:48:10.998Z,64.19
2018-12-01T20:50:38.705Z,63.48
2018-12-01T20:53:07.345Z,63.42
2018-12-01T20:55:35.051Z,63.12
2018-12-01T20:58:04.085Z,62.86
2018-12-01T21:00:31.822Z,64.74
2018-12-01T21:02:59.568Z,63.15
2018-12-01T21:05:27.297Z,63.63
2018-12-01T21:07:55.045Z,63.24
2018-12-01T21:10:24.833Z,62.62
2018-12-01T21:12:52.918Z,61.88
2018-12-01T21:15:20.720Z,61.57
2018-12-01T21:17:48.449Z,65.15
2018-12-01T21:20:17.085Z,65.48
2018-12-01T21:22:46.274Z,64.03
2018-12-01T21:25:15.450Z,61.91
2018-12-01T21:27:43.179Z,62.20
2018-12-01T21:30:12.580Z,62.25
2018-12-01T21:32:40.389Z,62.02
2018-12-01T21:35:09.973Z,61.50
2018-12-01T21:37:37.814Z,61.32
2018-12-01T21:40:12.293Z,65.31
2018-12-01T21:42:40.044Z,63.61
2018-12-01T21:45:09.685Z,63.78
2018-12-01T21:47:37.437Z,64.40
2018-12-01T21:50:14.061Z,63.34
2018-12-01T21:52:42.759Z,62.28
2018-12-01T21:55:11.141Z,62.61
2018-12-01T21:57:39.652Z,62.18
2018-12-01T22:00:13.207Z,62.41
2018-12-01T22:02:40.949Z,61.62
2018-12-01T22:05:11.030Z,62.57
2018-12-01T22:07:38.766Z,63.50
2018-12-01T22:10:09.652Z,62.63
2018-12-01T22:12:37.396Z,62.29
2018-12-01T22:15:06.945Z,63.21
2018-12-01T22:17:34.713Z,67.54
2018-12-01T22:20:02.417Z,67.41
2018-12-01T22:22:30.128Z,66.27
2018-12-01T22:24:57.872Z,64.53
2018-12-01T22:27:25.554Z,63.96
2018-12-01T22:29:53.245Z,64.06
2018-12-01T22:32:20.962Z,63.25
2018-12-01T22:34:48.670Z,63.59
2018-12-01T22:37:16.399Z,63.39
2018-12-01T22:39:44.133Z,63.55
2018-12-01T22:42:11.808Z,63.47
2018-12-01T22:44:39.521Z,64.49
2018-12-01T22:47:07.285Z,64.72
2018-12-01T22:49:35.023Z,65.53
2018-12-01T22:52:02.738Z,65.10
2018-12-01T22:54:30.458Z,64.07
2018-12-01T22:56:58.132Z,64.12
2018-12-01T22:59:25.824Z,63.34
2018-12-01T23:01:53.636Z,63.79
2018-12-01T23:04:21.325Z,63.43
2018-12-01T23:06:49.050Z,64.24
2018-12-01T23:09:16.749Z,63.76
2018-12-01T23:11:44.452Z,63.66
2018-12-01T23:14:12.133Z,64.80
2018-12-01T23:16:39.882Z,65.27
2018-12-01T23:19:07.577Z,65.06
2018-12-01T23:21:35.304Z,64.59
2018-12-01T23:24:03.119Z,63.85
2018-12-01T23:26:30.809Z,64.30
2018-12-01T23:28:58.540Z,64.79
2018-12-01T23:31:26.236Z,64.81
2018-12-01T23:33:53.904Z,65.34
2018-12-01T23:36:21.609Z,65.06
2018-12-01T23:38:49.324Z,64.88
2018-12-01T23:41:17.049Z,63.87
2018-12-01T23:43:44.725Z,65.25
2018-12-01T23:46:12.440Z,64.98
2018-12-01T23:48:40.149Z,64.96
2018-12-01T23:51:07.873Z,65.07
2018-12-01T23:53:35.574Z,66.04
2018-12-01T23:56:03.287Z,66.01
2018-12-01T23:58:30.970Z,66.38
